KCVO/CVO METAR and TAF weather

Enter ICAO airport designator
Station Type Date Time Source
KCVO METAR 2022/09/26 07:56 UTC NOAA

KCVO 260756Z AUTO 24003KT 10SM CLR 13/11 A2999 RMK AO2 SLP154 T01280111 403000067


Station Type Date Time Source
KCVO Decoded METAR 2022/09/26 07:56 UTC NOAA

Corvallis, Corvallis Municipal Airport, OR, United States (KCVO) 44-30N 123-17W
Sep 26, 2022 - 03:56 AM EDT / 2022.09.26 0756 UTC
Wind: from the WSW (240 degrees) at 3 MPH (3 KT):0
Visibility: 10 mile(s):0
Sky conditions: clear
Temperature: 55.0 F (12.8 C)
Dew Point: 52.0 F (11.1 C)
Relative Humidity: 89%
Pressure (altimeter): 29.99 in. Hg (1015 hPa)
ob: KCVO 260756Z AUTO 24003KT 10SM CLR 13/11 A2999 RMK AO2 SLP154 T01280111 403000067
cycle: 8

Station Type Date Time Source
KCVO TAF UTC NOAA

Error!

Example: see airport list